• Join FlightAware (Why Join?)
  • Login
  • US Flag 
05:30AM EDT


 

Airport Tracker/Info


-or-


 

Live Flight TrackerFlight Track Log ✈ AAY894 ✈ 01-Apr-2014 ✈ KPIE - KIAG

Flight Track Log - Related Links

Times and Time Zones

All times are in EDT time to prevent confusion due to time zone crossing. See the AAY894 flight status page for this flight to view local times or setup timezone preferences in your user account.

Time Position Orientation Groundspeed Altitude Reporting Facility
EDT Latitude Longitude Course Direction KTS MPH feet Rate Location/Type
07:07AM 27.9333 -82.7000 24° Northeast 158 182 1,100  Level Tampa TRACON
07:07AM 27.9667 -82.6833 24° Northeast 191 220 2,000 2,160 Climbing Tampa TRACON
07:08AM 28.0333 -82.6500 24° Northeast 251 289 4,800 2,460 Climbing Tampa TRACON
07:09AM 28.1000 -82.6500 360° North 281 323 7,000 2,040 Climbing Tampa TRACON
07:15AM 28.6184 -82.6085 353° North 389 448 17,900 1,800 Climbing FlightAware ADS-B (KMCO)
07:20AM 29.2523 -82.6976 353° North 436 502 27,700 1,620 Climbing FlightAware ADS-B (KMCO)
07:21AM 29.3394 -82.7092 353° North 428 493 28,300 1,140 Climbing Jacksonville Center
07:22AM 29.4625 -82.7256 353° North 428 493 29,600 1,440 Climbing Jacksonville Center
07:23AM 29.5775 -82.7422 353° North 447 514 31,200 1,020 Climbing Jacksonville Center
07:29AM 30.2966 -82.6935 North 427 491 37,000 900 Climbing FlightAware ADS-B (KMCO)
07:29AM 30.3550 -82.6844 North 427 491 37,000  Level FlightAware ADS-B (KMCO)
07:30AM 30.4144 -82.6758 North 424 488 37,000  Level Jacksonville Center
07:31AM 30.5314 -82.6561 North 424 488 37,000  Level Jacksonville Center
07:32AM 30.6608 -82.6389 North 424 488 37,000  Level Jacksonville Center
07:33AM 30.7778 -82.6217 North 424 488 37,000 -60 Level Jacksonville Center
07:34AM 30.8947 -82.6019 North 424 488 36,900  Descending Jacksonville Center
07:35AM 31.0136 -82.5847 North 424 488 37,000  Climbing Jacksonville Center
07:36AM 31.1347 -82.5672 North 424 488 37,000  Level Jacksonville Center
07:37AM 31.2536 -82.5475 North 424 488 37,000  Level Jacksonville Center
07:38AM 31.3725 -82.5250 North 424 488 37,000  Level Jacksonville Center
07:39AM 31.4936 -82.5075 North 424 488 37,000  Level Jacksonville Center
07:40AM 31.6106 -82.4875 North 424 488 37,000  Level Jacksonville Center
07:42AM 31.8075 -82.4578 North 443 510 37,000  Level Atlanta Center
07:43AM 31.9261 -82.4408 North 437 503 37,000  Level Atlanta Center
07:44AM 32.0450 -82.4217 North 432 497 37,000  Level Atlanta Center
07:45AM 32.1678 -82.4022 North 432 497 37,000  Level Atlanta Center
07:46AM 32.2739 -82.3831 North 432 497 37,000  Level Atlanta Center
07:47AM 32.3947 -82.3636 North 427 491 37,000  Level Atlanta Center
07:48AM 32.5156 -82.3392 10° North 427 491 37,000  Level Atlanta Center
07:49AM 32.6383 -82.3122 10° North 432 497 37,000  Level Atlanta Center
07:50AM 32.7611 -82.2850 11° North 437 503 37,000  Level Atlanta Center
07:51AM 32.8983 -82.2525 11° North 447 514 37,000  Level Atlanta Center
07:52AM 33.0169 -82.2256 11° North 447 514 37,000  Level Atlanta Center
07:53AM 33.1397 -82.1956 12° North 447 514 37,000  Level Atlanta Center
07:54AM 33.2603 -82.1658 12° North 447 514 37,000  Level Atlanta Center
07:55AM 33.3789 -82.1383 11° North 447 514 37,000  Level Atlanta Center
07:56AM 33.4994 -82.1106 11° North 447 514 37,000  Level Atlanta Center
07:57AM 33.6222 -82.0806 12° North 447 514 37,000  Level Atlanta Center
07:58AM 33.7447 -82.0503 12° North 447 514 37,000  Level Atlanta Center
07:59AM 33.8675 -82.0222 11° North 447 514 37,000  Level Atlanta Center
08:00AM 33.9775 -81.9947 12° North 452 520 37,000  Level Atlanta Center
08:05AM 34.6717 -81.8306 12° North 444 511 37,000  Level FlightAware ADS-B (KDZJ)
08:06AM 34.7593 -81.8094 11° North 444 511 37,000  Level FlightAware ADS-B (KDZJ)
08:07AM 34.9400 -81.7654 12° North 446 513 37,000  Level FlightAware ADS-B (KDZJ)
08:08AM 34.9628 -81.7653 12° North 452 520 37,000  Level Atlanta Center
08:09AM 35.0875 -81.7342 12° North 447 514 37,000  Level Atlanta Center
08:10AM 35.2119 -81.7025 12° North 447 514 37,100  Climbing Atlanta Center
08:11AM 35.3386 -81.6736 11° North 447 514 37,000 -60 Descending Atlanta Center
08:12AM 35.4611 -81.6444 11° North 447 514 37,000  Level Atlanta Center
08:13AM 35.5900 -81.6100 12° North 447 514 37,000  Level Atlanta Center
08:14AM 35.7167 -81.5783 11° North 452 520 37,000  Level Atlanta Center
08:15AM 35.8431 -81.5461 12° North 452 520 37,000  Level Atlanta Center
08:16AM 35.9697 -81.5142 12° North 458 527 37,000  Level Atlanta Center
08:17AM 36.0922 -81.4819 12° North 458 527 37,000  Level Atlanta Center
08:18AM 36.2208 -81.4497 11° North 458 527 37,000  Level Atlanta Center
08:19AM 36.3453 -81.4172 12° North 458 527 37,000  Level Atlanta Center
08:21AM 36.6411 -81.3417 12° North 463 533 37,000  Level Indianapolis Center
08:22AM 36.7669 -81.3097 11° North 464 534 37,000  Level Indianapolis Center
08:23AM 36.9153 -81.2711 12° North 465 535 37,000  Level Indianapolis Center
08:24AM 37.0347 -81.2417 11° North 466 536 37,000  Level Indianapolis Center
08:25AM 37.1633 -81.2075 12° North 467 537 37,000  Level Indianapolis Center
08:26AM 37.2925 -81.1747 11° North 468 539 37,000  Level Indianapolis Center
08:27AM 37.4433 -81.1358 12° North 469 540 37,000  Level Indianapolis Center
08:28AM 37.5686 -81.1022 12° North 469 540 37,000  Level Indianapolis Center
08:29AM 37.6950 -81.0706 11° North 470 541 37,000  Level Indianapolis Center
08:30AM 37.8214 -81.0358 12° North 472 543 37,000  Level Indianapolis Center
08:31AM 37.9747 -81.0036 North 471 542 37,000  Level Indianapolis Center
08:32AM 38.1031 -80.9881 North 466 536 37,000  Level Indianapolis Center
08:33AM 38.2308 -80.9653 North 466 536 37,000  Level Indianapolis Center
08:34AM 38.3572 -80.9267 13° North 466 536 37,000  Level Indianapolis Center
08:35AM 38.4844 -80.8917 12° North 466 536 37,000  Level Indianapolis Center
08:36AM 38.6119 -80.8550 13° North 468 539 37,000  Level Indianapolis Center
08:38AM 38.7394 -80.8197 12° North 468 539 37,000  Level Indianapolis Center
08:39AM 38.8933 -80.7758 13° North 470 541 37,000  Level Indianapolis Center
08:40AM 39.0236 -80.7386 13° North 474 545 37,000  Level Indianapolis Center
08:41AM 39.1522 -80.7019 12° North 475 547 37,000  Level Indianapolis Center
08:42AM 39.2822 -80.6644 13° North 476 548 37,000  Level Indianapolis Center
08:43AM 39.4100 -80.6100 18° North 480 552 37,000  Level Indianapolis Center
08:44AM 39.5383 -80.5567 18° North 482 555 37,000 -60 Level Indianapolis Center
08:45AM 39.6656 -80.5019 18° North 482 555 36,900 -1,560 Descending Indianapolis Center
08:46AM 39.8208 -80.4356 18° North 485 558 33,800 -1,920 Descending Indianapolis Center
08:47AM 39.9469 -80.3817 18° North 481 554 33,000 -420 Descending Indianapolis Center
08:53AM 40.7194 -80.0436 18° North 472 543 31,000 -360 Descending FlightAware ADS-B (CYYZ)
08:53AM 40.7963 -80.0097 18° North 473 544 30,600 -1,560 Descending FlightAware ADS-B (CYYZ)
08:55AM 40.9850 -79.9257 18° North 473 544 27,700 -1,920 Descending FlightAware ADS-B (CYYZ)
08:56AM 41.0364 -79.9028 18° North 431 496 26,600 -2,040 Descending FlightAware ADS-B (CYYZ)
08:56AM 41.1035 -79.8729 18° North 430 495 25,600 -1,200 Descending FlightAware ADS-B (CYYZ)
08:58AM 41.2817 -79.7930 18° North 416 479 24,000 -780 Descending FlightAware ADS-B (CYYZ)
08:58AM 41.3395 -79.7669 18° North 414 476 24,000  Level FlightAware ADS-B (CYYZ)
08:59AM 41.3978 -79.7406 18° North 413 475 24,000  Level FlightAware ADS-B (CYYZ)
08:59AM 41.4500 -79.7170 18° North 414 476 24,000  Level FlightAware ADS-B (CYYZ)
09:00AM 41.5062 -79.6916 18° North 416 479 24,000  Level FlightAware ADS-B (CYYZ)
09:00AM 41.5501 -79.6717 18° North 417 480 24,000  Level FlightAware ADS-B (CYYZ)
09:01AM 41.6152 -79.6421 18° North 417 480 24,000  Level FlightAware ADS-B (CYYZ)
09:01AM 41.6717 -79.6164 18° North 415 478 24,000  Level FlightAware ADS-B (CYYZ)
09:02AM 41.7260 -79.5915 18° North 415 478 24,000  Level FlightAware ADS-B (CYYZ)
09:02AM 41.7824 -79.5659 18° North 416 479 24,000  Level FlightAware ADS-B (CYYZ)
09:03AM 41.8221 -79.5477 18° North 417 480 24,000  Level FlightAware ADS-B (CYYZ)
09:03AM 41.8916 -79.5159 18° North 416 479 24,000  Level FlightAware ADS-B (CYYZ)
09:04AM 41.9459 -79.4909 18° North 417 480 24,000 -420 Level FlightAware ADS-B (CYYZ)
09:04AM 42.0014 -79.4653 18° North 416 479 23,600 -1,560 Descending FlightAware ADS-B (CYYZ)
09:05AM 42.0514 -79.4421 18° North 415 478 22,500 -1,980 Descending FlightAware ADS-B (CYYZ)
09:05AM 42.1098 -79.4152 19° North 411 473 21,600 -1,920 Descending FlightAware ADS-B (CYYZ)
09:06AM 42.1645 -79.3898 18° North 406 467 20,600 -1,920 Descending FlightAware ADS-B (CYYZ)
09:06AM 42.2175 -79.3654 18° North 402 463 19,700 -1,800 Descending FlightAware ADS-B (CYYZ)
09:07AM 42.2674 -79.3422 19° North 398 458 18,800 -1,980 Descending FlightAware ADS-B (CYYZ)
09:07AM 42.3182 -79.3187 18° North 397 457 17,800 -1,860 Descending FlightAware ADS-B (CYYZ)
09:08AM 42.3714 -79.2940 19° North 395 455 17,000 -1,800 Descending FlightAware ADS-B (CYYZ)
09:08AM 42.4252 -79.2687 19° North 392 451 16,000 -1,920 Descending FlightAware ADS-B (CYYZ)
09:09AM 42.4770 -79.2445 18° North 388 447 15,100 -1,800 Descending FlightAware ADS-B (CYYZ)
09:09AM 42.5275 -79.2207 19° North 380 437 14,200 -1,680 Descending FlightAware ADS-B (CYYZ)
09:10AM 42.5754 -79.1980 19° North 369 425 13,400 -1,620 Descending FlightAware ADS-B (CYYZ)
09:10AM 42.6245 -79.1750 18° North 361 415 12,600 -1,680 Descending FlightAware ADS-B (CYYZ)
09:11AM 42.6709 -79.1533 18° North 354 407 11,800 -1,500 Descending FlightAware ADS-B (CYYZ)
09:11AM 42.7166 -79.1318 19° North 340 391 11,100 -1,020 Descending FlightAware ADS-B (CYYZ)
09:12AM 42.7599 -79.1114 19° North 319 367 10,800 -1,020 Descending FlightAware ADS-B (CYYZ)
09:12AM 42.8017 -79.0916 19° North 311 358 10,100 -1,440 Descending FlightAware ADS-B (CYYZ)
09:13AM 42.8226 -79.0817 19° North 307 353 9,700 -1,440 Descending FlightAware ADS-B (CYYZ)
09:13AM 42.8424 -79.0723 19° North 303 349 9,400 -1,440 Descending FlightAware ADS-B (CYYZ)
09:13AM 42.8624 -79.0628 19° North 302 348 9,000 -1,380 Descending FlightAware ADS-B (CYYZ)
09:13AM 42.8818 -79.0535 19° North 291 335 8,700 -840 Descending FlightAware ADS-B (CYYZ)
09:14AM 42.9003 -79.0447 19° North 274 315 8,600 -840 Descending FlightAware ADS-B (CYYZ)
09:14AM 42.9175 -79.0364 19° North 263 303 8,300 -1,020 Descending FlightAware ADS-B (CYYZ)
09:14AM 42.9349 -79.0281 19° North 251 289 8,100 -780 Descending FlightAware ADS-B (CYYZ)
09:14AM 42.9507 -79.0206 19° North 237 273 7,900 -720 Descending FlightAware ADS-B (CYYZ)
09:15AM 42.9713 -79.0105 19° North 230 265 7,700 -720 Descending FlightAware ADS-B (CYYZ)
09:15AM 42.9854 -79.0010 29° Northeast 232 267 7,500 -1,080 Descending FlightAware ADS-B (CYYZ)
09:15AM 42.9984 -78.9892 36° Northeast 229 264 7,200 -1,020 Descending FlightAware ADS-B (CYYZ)
09:15AM 43.0107 -78.9757 40° Northeast 228 262 7,000 -1,020 Descending FlightAware ADS-B (CYYZ)
09:16AM 43.0217 -78.9599 50° Northeast 230 265 6,700 -960 Descending FlightAware ADS-B (CYYZ)
09:16AM 43.0280 -78.9485 56° Northeast 228 262 6,600 -960 Descending FlightAware ADS-B (CYYZ)
09:16AM 43.0363 -78.9289 63° Northeast 226 260 6,300 -1,080 Descending FlightAware ADS-B (CYYZ)
09:16AM 43.0432 -78.9097 63° Northeast 223 257 6,100 -1,260 Descending FlightAware ADS-B (CYYZ)
09:17AM 43.0508 -78.8913 58° Northeast 222 255 5,700 -1,440 Descending FlightAware ADS-B (CYYZ)
09:17AM 43.0591 -78.8743 54° Northeast 223 257 5,400 -1,200 Descending FlightAware ADS-B (CYYZ)
09:17AM 43.0686 -78.8581 48° Northeast 221 254 5,100 -1,200 Descending FlightAware ADS-B (CYYZ)
09:17AM 43.0727 -78.8526 43° Northeast 220 253 5,000 -1,200 Descending FlightAware ADS-B (CYYZ)
09:17AM 43.0808 -78.8438 34° Northeast 218 251 4,800 -1,140 Descending FlightAware ADS-B (CYYZ)
09:17AM 43.0852 -78.8402 28° Northeast 217 250 4,700 -840 Descending FlightAware ADS-B (CYYZ)
09:18AM 43.0942 -78.8351 17° North 215 247 4,600 -1,020 Descending FlightAware ADS-B (CYYZ)
09:18AM 43.1087 -78.8321 16° North 214 246 4,300 -1,200 Descending FlightAware ADS-B (CYYZ)
09:18AM 43.1173 -78.8334 352° North 208 239 4,100 -1,200 Descending FlightAware ADS-B (CYYZ)
09:18AM 43.1275 -78.8384 338° Northwest 205 236 3,900 -840 Descending FlightAware ADS-B (CYYZ)
09:18AM 43.1314 -78.8413 333° Northwest 203 234 3,900 -600 Level FlightAware ADS-B (CYYZ)
09:18AM 43.1354 -78.8449 326° Northwest 203 234 3,800 -900 Descending FlightAware ADS-B (CYYZ)
09:19AM 43.1452 -78.8569 313° West 205 236 3,600 -600 Descending FlightAware ADS-B (CYYZ)
09:19AM 43.1545 -78.8714 310° West 200 230 3,500 -540 Descending FlightAware ADS-B (CYYZ)
09:19AM 43.1644 -78.8894 305° West 194 223 3,300 -720 Descending FlightAware ADS-B (CYYZ)
09:19AM 43.1723 -78.9081 297° West 191 220 3,100 -720 Descending FlightAware ADS-B (CYYZ)
09:20AM 43.1749 -78.9189 287° West 182 209 3,000 -600 Descending FlightAware ADS-B (CYYZ)
09:20AM 43.1763 -78.9303 275° West 173 199 2,900 -540 Descending FlightAware ADS-B (CYYZ)
09:20AM 43.1756 -78.9538 263° West 156 180 2,700 -540 Descending FlightAware ADS-B (CYYZ)
09:20AM 43.1730 -78.9751 258° West 149 171 2,500 -720 Descending FlightAware ADS-B (CYYZ)
09:21AM 43.1700 -78.9893 252° West 146 168 2,300 -900 Descending FlightAware ADS-B (CYYZ)
09:21AM 43.1695 -78.9909 245° Southwest 144 166 2,200 -780 Descending FlightAware ADS-B (CYYZ)
09:21AM 43.1642 -79.0034 232° Southwest 138 159 2,000 -540 Descending FlightAware ADS-B (CYYZ)
09:22AM 43.1468 -79.0175 185° South 129 148 1,800 -540 Descending FlightAware ADS-B (CYYZ)
09:22AM 43.1300 -79.0165 176° South 123 142 1,500 -600 Descending FlightAware ADS-B (CYYZ)
09:22AM 43.1214 -79.0151 167° South 128 147 1,400 -240 Descending FlightAware ADS-B (CYYZ)
09:23AM 43.1072 -78.9858 167° South 134 154 1,200 -240 Descending Cleveland Center